Time;durP1;ratioP1;P1;durP2;ratioP2;P2;SDS_P1;SDS_P2;PMS_P1;PMS_P2;Temp;Humidity;BMP_temperature;BMP_pressure;BME280_temperature;BME280_humidity;BME280_pressure;Samples;Min_cycle;Max_cycle;Signal;HPM_P1;HPM_P2
2023/08/30 00:01:08;;;;;;;9.83;8.93;;;15.70;99.90;;;;;;5034421;28;20557;-70
2023/08/30 00:03:33;;;;;;;13.10;12.00;;;15.70;99.90;;;;;;5033897;28;20213;-70
2023/08/30 00:06:06;;;;;;;9.30;8.50;;;15.70;99.90;;;;;;5033560;28;20460;-70
2023/08/30 00:08:32;;;;;;;11.43;10.50;;;15.50;99.90;;;;;;5033877;28;20186;-70
2023/08/30 00:10:58;;;;;;;10.63;9.67;;;15.50;99.90;;;;;;5033960;28;20407;-70
2023/08/30 00:13:25;;;;;;;15.10;13.90;;;15.50;99.90;;;;;;5033752;28;20789;-70
2023/08/30 00:15:51;;;;;;;10.20;9.40;;;15.50;99.90;;;;;;5033826;28;20178;-70
2023/08/30 00:18:18;;;;;;;9.00;8.20;;;15.60;99.90;;;;;;5033549;28;20407;-70
2023/08/30 00:20:44;;;;;;;9.93;9.20;;;15.50;99.90;;;;;;5034045;28;20178;-70
2023/08/30 00:23:10;;;;;;;8.43;7.63;;;15.60;99.90;;;;;;5033625;28;20440;-69
2023/08/30 00:25:35;;;;;;;11.03;10.00;;;15.60;99.90;;;;;;5033465;28;20537;-71
2023/08/30 00:28:01;;;;;;;10.90;10.00;;;15.70;99.90;;;;;;5033603;28;20219;-68
2023/08/30 00:30:27;;;;;;;8.90;8.00;;;15.60;99.90;;;;;;5032244;28;20200;-70
2023/08/30 00:32:52;;;;;;;7.53;6.87;;;15.60;99.90;;;;;;5033530;28;20204;-70
2023/08/30 00:35:18;;;;;;;7.30;6.80;;;15.60;99.90;;;;;;5033843;28;20178;-69
2023/08/30 00:37:43;;;;;;;7.90;7.20;;;15.70;99.90;;;;;;5032185;28;20267;-70
2023/08/30 00:40:09;;;;;;;9.97;9.17;;;15.70;99.90;;;;;;5031711;28;20173;-70
2023/08/30 00:42:35;;;;;;;8.50;7.90;;;15.70;99.90;;;;;;5033245;28;20197;-70
2023/08/30 00:45:00;;;;;;;8.40;7.70;;;15.70;99.90;;;;;;5033635;28;20178;-70
2023/08/30 00:47:26;;;;;;;8.77;6.70;;;15.70;99.90;;;;;;5033341;28;20229;-70
2023/08/30 00:49:51;;;;;;;8.03;7.33;;;15.80;99.90;;;;;;5033322;28;20165;-70
2023/08/30 00:52:17;;;;;;;10.43;9.50;;;15.80;99.90;;;;;;5033271;28;21529;-70
2023/08/30 00:54:43;;;;;;;8.23;7.53;;;15.80;99.90;;;;;;5033115;28;20196;-69
2023/08/30 00:57:09;;;;;;;9.40;8.70;;;15.80;99.90;;;;;;5034221;28;20178;-70
2023/08/30 00:59:35;;;;;;;8.73;7.67;;;15.70;99.90;;;;;;5033868;28;20177;-70
2023/08/30 01:02:01;;;;;;;11.53;10.57;;;15.70;99.90;;;;;;5033295;28;20416;-70
2023/08/30 01:04:27;;;;;;;8.30;7.60;;;15.70;99.90;;;;;;5033256;28;20609;-70
2023/08/30 01:06:53;;;;;;;8.07;7.47;;;15.70;99.90;;;;;;5033642;28;20441;-70
2023/08/30 01:09:19;;;;;;;9.13;8.07;;;15.70;99.90;;;;;;5033223;28;20263;-68
2023/08/30 01:11:53;;;;;;;8.80;8.20;;;15.70;99.90;;;;;;5033490;28;20161;-68
2023/08/30 01:14:24;;;;;;;8.67;7.90;;;15.70;99.90;;;;;;5033114;28;20803;-67
2023/08/30 01:16:49;;;;;;;8.13;7.53;;;15.70;99.90;;;;;;5033232;28;20378;-70
2023/08/30 01:19:43;;;;;;;7.60;7.00;;;15.70;99.90;;;;;;5033171;28;20435;-70
2023/08/30 01:22:29;;;;;;;8.20;7.50;;;15.70;99.90;;;;;;5033290;28;20166;-70
2023/08/30 01:25:09;;;;;;;9.43;8.53;;;15.60;99.90;;;;;;5033579;28;20809;-70
2023/08/30 01:27:37;;;;;;;10.43;9.60;;;15.60;99.90;;;;;;5033527;28;20472;-70
2023/08/30 01:30:06;;;;;;;11.40;10.50;;;15.60;99.90;;;;;;5033151;28;20797;-70
2023/08/30 01:32:34;;;;;;;10.70;9.70;;;15.60;99.90;;;;;;5032135;28;20439;-71
2023/08/30 01:35:00;;;;;;;8.70;8.00;;;15.60;99.90;;;;;;5032670;28;20414;-70
2023/08/30 01:37:27;;;;;;;11.10;10.10;;;15.60;99.90;;;;;;5033562;28;20420;-70
2023/08/30 01:39:54;;;;;;;9.27;8.57;;;15.50;99.90;;;;;;5033143;28;20419;-70
2023/08/30 01:42:22;;;;;;;9.50;8.80;;;15.50;99.90;;;;;;5033523;28;20433;-69
2023/08/30 01:44:49;;;;;;;10.67;9.60;;;15.40;99.90;;;;;;5033538;28;20413;-70
2023/08/30 01:47:16;;;;;;;10.13;9.33;;;15.40;99.90;;;;;;5033796;28;20453;-70
2023/08/30 01:49:43;;;;;;;11.10;10.13;;;15.40;99.90;;;;;;5034318;28;20419;-70
2023/08/30 01:52:10;;;;;;;11.20;10.23;;;15.30;99.90;;;;;;5034349;28;20907;-70
2023/08/30 01:54:37;;;;;;;9.43;8.60;;;15.20;99.90;;;;;;5036704;28;20805;-70
2023/08/30 01:57:03;;;;;;;10.77;9.83;;;15.20;99.90;;;;;;5039282;28;20421;-70
2023/08/30 01:59:29;;;;;;;10.97;10.07;;;15.20;99.90;;;;;;5041283;28;20401;-69
2023/08/30 02:01:56;;;;;;;10.50;9.60;;;15.20;99.90;;;;;;5052285;28;20178;-70
2023/08/30 02:04:22;;;;;;;12.77;11.57;;;15.10;99.90;;;;;;5052763;28;20438;-68
2023/08/30 02:07:02;;;;;;;12.63;11.57;;;15.00;99.90;;;;;;5053725;28;20430;-70
2023/08/30 02:09:52;;;;;;;10.67;9.80;;;15.00;99.90;;;;;;5053692;28;20162;-70
2023/08/30 02:12:20;;;;;;;10.80;9.80;;;14.90;99.90;;;;;;5053030;28;20524;-72
2023/08/30 02:14:48;;;;;;;11.40;8.60;;;14.90;99.90;;;;;;5055226;28;20397;-70
2023/08/30 02:17:15;;;;;;;10.10;9.17;;;14.90;99.90;;;;;;5054381;28;20480;-70
2023/08/30 02:19:42;;;;;;;11.43;10.53;;;14.90;99.90;;;;;;5055431;28;20454;-69
2023/08/30 02:22:08;;;;;;;12.17;11.07;;;14.80;99.90;;;;;;5054480;28;20413;-70
2023/08/30 02:24:33;;;;;;;9.23;8.33;;;14.90;99.90;;;;;;5054830;28;20451;-70
2023/08/30 02:26:59;;;;;;;9.60;8.80;;;14.90;99.90;;;;;;5048787;28;20164;-69
2023/08/30 02:29:25;;;;;;;9.67;8.87;;;14.90;99.90;;;;;;5036659;28;20182;-69
2023/08/30 02:31:50;;;;;;;9.57;8.80;;;14.90;99.90;;;;;;5035853;28;20876;-69
2023/08/30 02:34:16;;;;;;;10.20;8.87;;;14.90;99.90;;;;;;5041746;22;20241;-68
2023/08/30 02:36:42;;;;;;;12.07;11.07;;;14.90;99.90;;;;;;5014838;28;20484;-69
2023/08/30 02:39:07;;;;;;;11.40;10.40;;;14.90;99.90;;;;;;5014255;28;20168;-68
2023/08/30 02:41:34;;;;;;;11.73;10.87;;;14.80;99.90;;;;;;5022419;28;20185;-69
2023/08/30 02:43:59;;;;;;;11.97;10.97;;;14.80;99.90;;;;;;5034183;28;20186;-69
2023/08/30 02:46:25;;;;;;;9.00;8.30;;;14.80;99.90;;;;;;5034121;28;20928;-69
2023/08/30 02:48:50;;;;;;;9.87;9.07;;;14.80;99.90;;;;;;5033894;28;20213;-69
2023/08/30 02:51:16;;;;;;;9.60;8.80;;;14.80;99.90;;;;;;5028351;28;20161;-69
2023/08/30 02:53:42;;;;;;;12.37;11.27;;;14.80;99.90;;;;;;5014211;28;20197;-69
2023/08/30 02:56:08;;;;;;;11.70;9.67;;;14.80;99.90;;;;;;5013934;28;20459;-69
2023/08/30 02:58:33;;;;;;;10.20;9.20;;;14.80;99.90;;;;;;5014489;28;20185;-69
2023/08/30 03:01:00;;;;;;;9.10;8.40;;;14.80;99.90;;;;;;5017867;28;20176;-69
2023/08/30 03:03:25;;;;;;;11.57;10.47;;;14.70;99.90;;;;;;5033323;28;20185;-69
2023/08/30 03:05:51;;;;;;;11.53;10.43;;;14.70;99.90;;;;;;5033751;28;20471;-69
2023/08/30 03:08:16;;;;;;;11.17;10.13;;;14.70;99.90;;;;;;5033498;28;20303;-68
2023/08/30 03:10:42;;;;;;;13.07;11.87;;;14.70;99.90;;;;;;5032450;28;20357;-69
2023/08/30 03:13:07;;;;;;;13.20;12.10;;;14.80;99.90;;;;;;5013671;28;20183;-68
2023/08/30 03:15:33;;;;;;;10.00;9.20;;;14.70;99.90;;;;;;5013741;28;20163;-68
2023/08/30 03:17:59;;;;;;;13.80;12.60;;;14.70;99.90;;;;;;5013665;28;20185;-68
2023/08/30 03:20:25;;;;;;;10.73;9.87;;;14.60;99.90;;;;;;5013285;28;20222;-68
2023/08/30 03:22:51;;;;;;;10.40;9.50;;;14.60;99.90;;;;;;5030696;28;20839;-69
2023/08/30 03:25:16;;;;;;;13.20;12.20;;;14.60;99.90;;;;;;5013413;28;20188;-68
2023/08/30 03:27:44;;;;;;;11.83;10.83;;;14.60;99.90;;;;;;5013698;28;20205;-69
2023/08/30 03:30:10;;;;;;;11.23;10.23;;;14.70;99.90;;;;;;5013404;28;20670;-68
2023/08/30 03:32:37;;;;;;;14.00;12.83;;;14.60;99.90;;;;;;5029221;28;20446;-68
2023/08/30 03:35:03;;;;;;;12.37;11.10;;;14.60;99.90;;;;;;5033248;28;20402;-68
2023/08/30 03:37:29;;;;;;;11.60;10.50;;;14.60;99.90;;;;;;5033155;28;20409;-68
2023/08/30 03:39:54;;;;;;;13.40;12.10;;;14.60;99.90;;;;;;5032766;28;20411;-68
2023/08/30 03:42:20;;;;;;;10.03;9.23;;;14.60;99.90;;;;;;5019170;28;20619;-69
2023/08/30 03:44:45;;;;;;;13.53;12.27;;;14.80;99.90;;;;;;5013147;28;20254;-69
2023/08/30 03:47:11;;;;;;;13.10;11.93;;;14.80;99.90;;;;;;5013181;28;20190;-69
2023/08/30 03:49:36;;;;;;;11.80;10.80;;;14.80;99.90;;;;;;5012948;28;20172;-68
2023/08/30 03:52:02;;;;;;;13.07;11.97;;;14.90;99.90;;;;;;5023989;28;20172;-69
2023/08/30 03:54:27;;;;;;;12.83;11.50;;;14.90;99.90;;;;;;5020479;28;20286;-69
2023/08/30 03:56:53;;;;;;;9.07;8.27;;;15.00;99.90;;;;;;5013263;28;20174;-68
2023/08/30 03:59:19;;;;;;;10.10;9.20;;;15.00;99.90;;;;;;5012917;28;20176;-68
2023/08/30 04:01:45;;;;;;;9.73;8.73;;;15.00;99.90;;;;;;5021116;28;20176;-69
2023/08/30 04:04:10;;;;;;;10.40;9.33;;;15.00;99.90;;;;;;5032203;28;20180;-67
2023/08/30 04:06:36;;;;;;;9.47;8.70;;;15.00;99.90;;;;;;5031235;28;20840;-69
2023/08/30 04:09:01;;;;;;;10.40;9.47;;;15.10;99.90;;;;;;5022498;28;20233;-68
2023/08/30 04:11:27;;;;;;;10.20;9.40;;;15.10;99.90;;;;;;5018449;28;20600;-68
2023/08/30 04:13:52;;;;;;;11.37;10.43;;;15.10;99.90;;;;;;5021127;28;20201;-68
2023/08/30 04:16:18;;;;;;;10.90;9.80;;;15.10;99.90;;;;;;5012286;28;20197;-68
2023/08/30 04:18:44;;;;;;;13.90;12.27;;;15.10;99.90;;;;;;5012204;28;20171;-68
2023/08/30 04:21:09;;;;;;;13.40;12.30;;;15.10;99.90;;;;;;5015912;28;20248;-68
2023/08/30 04:23:35;;;;;;;10.03;9.20;;;15.20;99.90;;;;;;5024772;28;20279;-69
2023/08/30 04:26:01;;;;;;;10.37;7.83;;;15.20;99.90;;;;;;5012207;28;20176;-68
2023/08/30 04:28:27;;;;;;;9.93;9.20;;;15.20;99.90;;;;;;5012242;28;20264;-68
2023/08/30 04:30:56;;;;;;;9.37;8.57;;;15.20;99.90;;;;;;5013691;28;20174;-68
2023/08/30 04:33:22;;;;;;;10.00;9.10;;;15.20;99.90;;;;;;5031976;28;20523;-68
2023/08/30 04:35:52;;;;;;;11.23;10.13;;;15.20;99.90;;;;;;5032059;28;20408;-69
2023/08/30 04:38:18;;;;;;;8.97;8.00;;;15.20;99.90;;;;;;5031724;28;20404;-68
2023/08/30 04:40:43;;;;;;;11.57;10.60;;;15.20;99.90;;;;;;5031661;28;20438;-69
2023/08/30 04:43:09;;;;;;;10.07;9.27;;;15.30;99.90;;;;;;5012018;28;20294;-68
2023/08/30 04:45:37;;;;;;;14.10;13.00;;;15.30;99.90;;;;;;5012091;28;20229;-68
2023/08/30 04:48:04;;;;;;;16.30;14.80;;;15.20;99.90;;;;;;5012162;28;20681;-69
2023/08/30 04:50:30;;;;;;;12.83;11.63;;;15.20;99.90;;;;;;5011592;28;20448;-68
2023/08/30 04:52:56;;;;;;;12.23;11.13;;;15.30;99.90;;;;;;5027709;28;20804;-69
2023/08/30 04:55:24;;;;;;;10.90;10.00;;;15.30;99.90;;;;;;5012235;28;20400;-69
2023/08/30 04:57:50;;;;;;;10.93;10.03;;;15.30;99.90;;;;;;5011979;28;20411;-68
2023/08/30 05:00:16;;;;;;;11.17;10.17;;;15.30;99.90;;;;;;5012481;28;20466;-69
2023/08/30 05:02:43;;;;;;;11.73;10.63;;;15.40;99.90;;;;;;5027430;28;20561;-68
2023/08/30 05:05:09;;;;;;;11.43;10.43;;;15.30;99.90;;;;;;5031626;28;20918;-68
2023/08/30 05:07:34;;;;;;;12.67;11.57;;;15.40;99.90;;;;;;5031940;28;20447;-69
2023/08/30 05:10:00;;;;;;;14.43;13.23;;;15.40;99.90;;;;;;5031592;28;20168;-69
2023/08/30 05:12:26;;;;;;;10.33;9.43;;;15.50;99.90;;;;;;5018521;28;20256;-70
2023/08/30 05:14:51;;;;;;;11.93;10.97;;;15.50;99.90;;;;;;5012235;28;20164;-69
2023/08/30 05:17:17;;;;;;;11.07;10.17;;;15.50;99.90;;;;;;5012338;28;20198;-69
2023/08/30 05:19:43;;;;;;;10.33;9.53;;;15.50;99.90;;;;;;5012175;28;20176;-69
2023/08/30 05:22:08;;;;;;;10.37;9.50;;;15.60;99.90;;;;;;5022362;28;20414;-68
2023/08/30 05:24:34;;;;;;;12.37;11.17;;;15.60;99.90;;;;;;5016122;28;20201;-69
2023/08/30 05:26:59;;;;;;;9.73;8.90;;;15.70;99.90;;;;;;5013479;28;20167;-68
2023/08/30 05:29:25;;;;;;;9.93;8.93;;;15.70;99.90;;;;;;5016056;28;20179;-68
2023/08/30 05:31:50;;;;;;;11.10;10.20;;;15.70;99.90;;;;;;5019344;28;20176;-68
2023/08/30 05:34:16;;;;;;;10.97;9.87;;;15.80;99.90;;;;;;5015437;28;20212;-68
2023/08/30 05:36:41;;;;;;;11.80;10.90;;;15.80;99.90;;;;;;5015879;28;20200;-69
2023/08/30 05:39:07;;;;;;;11.00;10.00;;;15.80;99.90;;;;;;5016089;28;20179;-68
2023/08/30 05:41:33;;;;;;;9.73;8.93;;;15.80;99.90;;;;;;5021230;28;20177;-68
2023/08/30 05:43:58;;;;;;;13.73;12.53;;;15.90;99.90;;;;;;5035792;28;20194;-68
2023/08/30 05:46:24;;;;;;;11.80;10.90;;;16.00;99.90;;;;;;5035258;28;20172;-68
2023/08/30 05:48:49;;;;;;;10.73;9.70;;;16.00;99.90;;;;;;5035012;28;20193;-69
2023/08/30 05:51:15;;;;;;;11.73;10.73;;;16.10;99.90;;;;;;5032718;28;20164;-68
2023/08/30 05:53:41;;;;;;;11.97;10.73;;;16.10;99.90;;;;;;5015567;28;20184;-69
2023/08/30 05:56:06;;;;;;;11.40;10.50;;;16.10;99.90;;;;;;5015563;28;20174;-67
2023/08/30 05:58:32;;;;;;;10.07;9.30;;;16.20;99.90;;;;;;5017896;28;20181;-68
2023/08/30 06:00:59;;;;;;;11.77;10.70;;;16.20;99.90;;;;;;5015388;28;20645;-68
2023/08/30 06:03:24;;;;;;;11.40;10.30;;;16.20;99.90;;;;;;5018940;28;20242;-68
2023/08/30 06:05:50;;;;;;;10.47;9.57;;;16.10;99.90;;;;;;5014989;28;20826;-68
2023/08/30 06:08:17;;;;;;;10.33;9.43;;;16.10;99.90;;;;;;5014976;28;20734;-69
2023/08/30 06:10:43;;;;;;;11.87;10.87;;;16.20;99.90;;;;;;5033692;28;20205;-70
2023/08/30 06:13:08;;;;;;;9.67;8.97;;;16.30;99.90;;;;;;5016808;28;20836;-69
2023/08/30 06:15:35;;;;;;;10.70;9.80;;;16.40;99.90;;;;;;5017610;28;20187;-69
2023/08/30 06:18:01;;;;;;;10.37;9.50;;;16.40;99.90;;;;;;5014798;28;20174;-68
2023/08/30 06:20:26;;;;;;;11.80;10.90;;;16.50;99.90;;;;;;5014729;28;20429;-68
2023/08/30 06:22:52;;;;;;;9.57;8.87;;;16.50;99.90;;;;;;5030455;28;20196;-68
2023/08/30 06:25:17;;;;;;;10.00;9.20;;;16.60;99.90;;;;;;5035014;28;20171;-69
2023/08/30 06:27:59;;;;;;;11.30;10.30;;;16.60;99.90;;;;;;5034655;28;20190;-69
2023/08/30 06:30:30;;;;;;;11.43;10.43;;;16.80;99.90;;;;;;5034994;28;20216;-69
2023/08/30 06:32:56;;;;;;;13.10;11.83;;;16.80;99.90;;;;;;5018232;28;20782;-70
2023/08/30 06:35:22;;;;;;;10.07;9.20;;;16.90;99.90;;;;;;5014715;28;20411;-69
2023/08/30 06:37:48;;;;;;;14.33;9.30;;;16.70;99.90;;;;;;5014467;28;20844;-70
2023/08/30 06:40:14;;;;;;;11.87;10.67;;;16.80;99.90;;;;;;5014295;28;20446;-69
2023/08/30 06:42:39;;;;;;;13.63;11.83;;;17.00;99.90;;;;;;5028036;28;20708;-69
2023/08/30 06:45:06;;;;;;;13.83;12.40;;;17.10;99.90;;;;;;5034720;28;20230;-69
2023/08/30 06:47:31;;;;;;;10.47;9.57;;;17.10;99.90;;;;;;5034052;28;20195;-69
2023/08/30 06:49:57;;;;;;;9.10;8.30;;;17.10;99.90;;;;;;5034105;28;20730;-69
2023/08/30 06:52:23;;;;;;;11.30;9.30;;;16.90;99.90;;;;;;5022565;28;20178;-69
2023/08/30 06:54:48;;;;;;;18.63;14.77;;;17.10;99.90;;;;;;5014183;28;20167;-69
2023/08/30 06:57:14;;;;;;;11.77;10.20;;;17.30;99.90;;;;;;5014485;28;20186;-68
2023/08/30 06:59:39;;;;;;;10.30;9.40;;;17.40;99.90;;;;;;5014481;28;20195;-69
2023/08/30 07:02:06;;;;;;;9.40;8.50;;;17.50;99.90;;;;;;5015901;28;20167;-69
2023/08/30 07:04:31;;;;;;;10.00;9.00;;;17.50;99.90;;;;;;5013924;28;20203;-70
2023/08/30 07:06:57;;;;;;;8.60;7.90;;;17.50;99.90;;;;;;5014018;28;20727;-71
2023/08/30 07:09:28;;;;;;;8.60;7.90;;;17.60;99.90;;;;;;5014214;28;20514;-70
2023/08/30 07:11:54;;;;;;;8.60;7.73;;;17.60;99.90;;;;;;5020954;28;20167;-70
2023/08/30 07:14:20;;;;;;;9.87;8.77;;;17.70;99.90;;;;;;5033985;28;20963;-70
2023/08/30 07:16:46;;;;;;;9.20;7.30;;;17.80;99.90;;;;;;5033417;28;20590;-70
2023/08/30 07:19:11;;;;;;;7.30;6.77;;;17.80;99.90;;;;;;5031432;28;20168;-70
2023/08/30 07:21:38;;;;;;;8.10;7.40;;;17.70;99.90;;;;;;5027616;28;20168;-70
2023/08/30 07:24:06;;;;;;;7.20;6.63;;;17.60;99.90;;;;;;5012677;28;20626;-71
2023/08/30 07:26:32;;;;;;;6.47;5.97;;;17.60;99.90;;;;;;5014044;28;20402;-72
2023/08/30 07:28:57;;;;;;;28.20;25.77;;;17.60;99.90;;;;;;5013494;28;21013;-75
2023/08/30 07:31:23;;;;;;;8.10;7.30;;;17.60;99.90;;;;;;5016165;28;20705;-70
2023/08/30 07:33:48;;;;;;;7.10;6.47;;;17.60;99.90;;;;;;5013681;28;20211;-71
2023/08/30 07:36:15;;;;;;;6.23;5.73;;;17.60;99.90;;;;;;5013477;28;20281;-71
2023/08/30 07:38:40;;;;;;;7.50;6.80;;;17.70;99.90;;;;;;5013522;28;20465;-71
2023/08/30 07:41:06;;;;;;;6.87;6.27;;;17.80;99.90;;;;;;5013366;28;20172;-73
2023/08/30 07:43:31;;;;;;;7.10;6.50;;;17.80;99.90;;;;;;5033585;28;20285;-71
2023/08/30 07:45:58;;;;;;;7.77;6.30;;;17.60;99.90;;;;;;5032887;28;20641;-75
2023/08/30 07:48:24;;;;;;;9.30;7.33;;;17.60;99.90;;;;;;5032768;28;20253;-76
2023/08/30 07:50:50;;;;;;;7.27;6.67;;;17.50;99.90;;;;;;5031673;28;20774;-71
2023/08/30 07:53:16;;;;;;;9.37;7.27;;;17.40;99.90;;;;;;5015246;28;20279;-69
2023/08/30 07:55:41;;;;;;;8.43;7.73;;;17.50;99.90;;;;;;5013448;28;20890;-70
2023/08/30 07:58:10;;;;;;;7.77;7.17;;;17.50;99.90;;;;;;5013071;28;20650;-69
2023/08/30 08:00:35;;;;;;;7.00;6.50;;;17.50;99.90;;;;;;5014115;28;20673;-70
2023/08/30 08:03:01;;;;;;;8.87;8.07;;;17.50;99.90;;;;;;5015218;28;20477;-70
2023/08/30 08:05:26;;;;;;;6.67;6.10;;;17.50;99.90;;;;;;5012769;28;20199;-70
2023/08/30 08:07:53;;;;;;;6.53;6.03;;;17.70;99.90;;;;;;5012338;28;20290;-71
2023/08/30 08:10:19;;;;;;;6.87;6.27;;;17.80;99.90;;;;;;5012898;28;20168;-74
2023/08/30 08:12:45;;;;;;;7.00;6.50;;;17.80;99.90;;;;;;5025758;28;20426;-71
2023/08/30 08:15:11;;;;;;;7.57;6.97;;;17.70;99.90;;;;;;5032435;28;20413;-71
2023/08/30 08:17:36;;;;;;;7.13;6.43;;;17.60;99.90;;;;;;5032261;28;20207;-71
2023/08/30 08:20:04;;;;;;;7.93;7.23;;;17.60;99.90;;;;;;5032150;28;20174;-71
2023/08/30 08:22:29;;;;;;;11.70;5.87;;;17.50;99.90;;;;;;5028037;28;20681;-72
2023/08/30 08:24:56;;;;;;;7.80;7.13;;;17.70;99.90;;;;;;5033128;28;20441;-72
2023/08/30 08:27:21;;;;;;;6.87;6.37;;;17.90;99.90;;;;;;5030781;28;20195;-70
2023/08/30 08:29:47;;;;;;;6.73;6.13;;;18.10;99.90;;;;;;5032389;28;20465;-70
2023/08/30 08:32:13;;;;;;;6.50;5.90;;;18.20;99.90;;;;;;5022742;28;20199;-70
2023/08/30 08:34:38;;;;;;;7.60;6.90;;;18.00;99.90;;;;;;5012526;28;20310;-70
2023/08/30 08:37:04;;;;;;;6.20;5.60;;;18.00;99.90;;;;;;5012469;28;20164;-71
2023/08/30 08:39:30;;;;;;;7.27;6.67;;;18.10;99.90;;;;;;5012396;28;20191;-70
2023/08/30 08:41:58;;;;;;;7.50;7.00;;;18.10;99.90;;;;;;5017073;28;20180;-71
2023/08/30 08:44:26;;;;;;;7.57;6.90;;;18.10;99.90;;;;;;5031708;28;20445;-71
2023/08/30 08:46:52;;;;;;;6.40;5.90;;;18.20;99.90;;;;;;5031978;28;20544;-71
2023/08/30 08:49:18;;;;;;;6.00;5.50;;;18.20;99.90;;;;;;5030364;28;20466;-72
2023/08/30 08:51:45;;;;;;;7.10;6.50;;;18.20;99.90;;;;;;5027795;28;20286;-72
2023/08/30 08:54:11;;;;;;;6.20;5.60;;;18.50;99.90;;;;;;5012083;28;20646;-71
2023/08/30 08:56:38;;;;;;;5.23;4.87;;;18.90;99.90;;;;;;5012113;28;20407;-69
2023/08/30 08:59:08;;;;;;;6.00;5.50;;;18.80;99.90;;;;;;5012178;28;20411;-69
2023/08/30 09:01:39;;;;;;;5.93;5.33;;;18.80;99.90;;;;;;5014490;28;20411;-73
2023/08/30 09:04:07;;;;;;;5.70;5.27;;;19.10;99.90;;;;;;5032448;28;20837;-73
2023/08/30 09:06:33;;;;;;;9.27;6.30;;;19.00;99.90;;;;;;5033271;28;20464;-74
2023/08/30 09:08:59;;;;;;;5.97;5.43;;;18.80;99.90;;;;;;5031493;28;20972;-75
2023/08/30 09:11:25;;;;;;;5.90;5.40;;;19.20;99.90;;;;;;5018332;28;20426;-72
2023/08/30 09:13:50;;;;;;;4.60;4.07;;;19.10;99.90;;;;;;5031819;28;20436;-70
2023/08/30 09:16:16;;;;;;;5.10;3.87;;;18.90;99.90;;;;;;5032377;28;20626;-69
2023/08/30 09:18:42;;;;;;;5.33;4.87;;;19.00;99.90;;;;;;5031848;28;20175;-72
2023/08/30 09:21:11;;;;;;;4.43;4.03;;;19.20;99.90;;;;;;5030655;28;20593;-72
2023/08/30 09:23:37;;;;;;;4.00;3.70;;;19.50;99.90;;;;;;5012924;28;20199;-71
2023/08/30 09:26:04;;;;;;;4.10;3.80;;;19.30;99.90;;;;;;5011915;28;20445;-71
2023/08/30 09:28:31;;;;;;;4.30;3.87;;;19.00;99.90;;;;;;5011644;28;20450;-70
2023/08/30 09:31:00;;;;;;;5.77;5.17;;;19.00;99.90;;;;;;5012082;28;20399;-71
2023/08/30 09:33:33;;;;;;;6.20;4.57;;;19.10;99.90;;;;;;5029196;28;20446;-71
2023/08/30 09:36:00;;;;;;;5.03;4.20;;;19.30;99.90;;;;;;5031948;28;20765;-71
2023/08/30 09:38:26;;;;;;;4.20;3.90;;;19.70;99.90;;;;;;5031465;28;20421;-71
2023/08/30 09:40:52;;;;;;;3.80;3.40;;;19.60;99.90;;;;;;5024535;28;20415;-72
2023/08/30 09:43:21;;;;;;;6.60;5.90;;;19.70;99.90;;;;;;5027349;28;20195;-70
2023/08/30 09:45:48;;;;;;;3.83;3.37;;;19.70;99.90;;;;;;5031727;28;20417;-69
2023/08/30 09:48:14;;;;;;;3.97;3.67;;;19.50;99.90;;;;;;5031503;28;20465;-70
2023/08/30 09:50:44;;;;;;;4.13;3.57;;;19.60;99.90;;;;;;5031802;28;20416;-70
2023/08/30 09:53:15;;;;;;;4.70;4.30;;;19.90;99.90;;;;;;5016215;28;20423;-69
2023/08/30 09:55:42;;;;;;;3.77;3.40;;;20.30;99.90;;;;;;5011514;28;20494;-69
2023/08/30 09:58:09;;;;;;;2.97;2.77;;;20.40;99.90;;;;;;5013526;28;20413;-69
2023/08/30 10:00:35;;;;;;;3.23;3.03;;;20.20;99.90;;;;;;5011670;28;20415;-70
2023/08/30 10:03:01;;;;;;;4.40;3.40;;;20.20;99.90;;;;;;5024843;28;20434;-70
2023/08/30 10:05:27;;;;;;;3.60;3.40;;;20.10;99.90;;;;;;5031530;28;20180;-69
2023/08/30 10:07:54;;;;;;;3.07;2.77;;;20.10;99.90;;;;;;5031179;28;20462;-68
2023/08/30 10:10:20;;;;;;;3.00;2.70;;;20.70;99.90;;;;;;5014405;28;20259;-69
2023/08/30 10:12:46;;;;;;;3.33;2.93;;;20.80;99.90;;;;;;5022464;28;20498;-69
2023/08/30 10:15:12;;;;;;;2.70;2.50;;;21.00;99.90;;;;;;5034057;28;20909;-69
2023/08/30 10:17:41;;;;;;;3.70;3.40;;;21.30;99.90;;;;;;5034282;28;20471;-69
2023/08/30 10:20:07;;;;;;;3.03;2.73;;;21.30;99.90;;;;;;5014162;28;20184;-68
2023/08/30 10:22:36;;;;;;;2.60;2.40;;;21.10;99.90;;;;;;5024026;28;20425;-70
2023/08/30 10:25:05;;;;;;;1.80;1.70;;;21.30;99.90;;;;;;5034128;28;20414;-69
2023/08/30 10:27:33;;;;;;;3.10;2.60;;;21.70;99.90;;;;;;5033421;28;20450;-68
2023/08/30 10:30:01;;;;;;;2.93;2.63;;;21.00;99.90;;;;;;5032891;28;20417;-68
2023/08/30 10:32:27;;;;;;;2.70;2.27;;;21.30;99.90;;;;;;5022243;28;20414;-69
2023/08/30 10:34:52;;;;;;;4.77;3.70;;;21.50;99.90;;;;;;5034757;28;20892;-69
2023/08/30 10:37:26;;;;;;;2.63;2.17;;;21.80;99.90;;;;;;5034745;28;20221;-69
2023/08/30 10:39:52;;;;;;;2.33;2.00;;;22.00;99.90;;;;;;5034387;28;20178;-69
2023/08/30 10:42:22;;;;;;;2.87;2.10;;;22.20;99.90;;;;;;5022583;28;20406;-69
2023/08/30 10:44:48;;;;;;;3.10;2.40;;;22.30;99.90;;;;;;5034334;28;20622;-69
2023/08/30 10:47:23;;;;;;;2.40;2.20;;;22.30;99.90;;;;;;5034556;28;20421;-69
2023/08/30 10:49:49;;;;;;;2.00;1.80;;;22.40;99.90;;;;;;5034449;28;20838;-70
2023/08/30 10:52:15;;;;;;;2.93;2.00;;;22.70;99.90;;;;;;5027721;28;20403;-69
2023/08/30 10:54:40;;;;;;;2.50;2.23;;;22.60;99.90;;;;;;5014633;28;20414;-69
2023/08/30 10:57:13;;;;;;;1.97;1.77;;;23.90;99.90;;;;;;5014278;28;20188;-70
2023/08/30 10:59:39;;;;;;;3.80;3.00;;;25.20;99.80;;;;;;5014195;28;20172;-70
2023/08/30 11:02:05;;;;;;;2.20;1.97;;;25.10;98.70;;;;;;5019558;28;20789;-71
2023/08/30 11:04:32;;;;;;;2.70;1.93;;;25.30;98.90;;;;;;5006898;28;20197;-71
2023/08/30 11:06:57;;;;;;;1.97;1.80;;;25.90;97.90;;;;;;5004910;28;20507;-70
2023/08/30 11:09:24;;;;;;;2.10;1.90;;;25.90;97.80;;;;;;5004931;28;20590;-71
2023/08/30 11:11:51;;;;;;;2.40;2.00;;;25.80;96.90;;;;;;5004551;28;20192;-70
2023/08/30 11:14:18;;;;;;;1.80;1.70;;;25.80;98.10;;;;;;5004297;28;20821;-71
2023/08/30 11:16:44;;;;;;;2.80;2.20;;;25.80;96.30;;;;;;5004905;28;20433;-70
2023/08/30 11:19:11;;;;;;;2.10;1.90;;;26.30;95.00;;;;;;5004463;28;20952;-71
2023/08/30 11:21:39;;;;;;;2.43;2.20;;;26.20;96.60;;;;;;5004970;28;20765;-71
2023/08/30 11:24:06;;;;;;;1.97;1.67;;;27.00;95.30;;;;;;5004297;28;20473;-69
2023/08/30 11:26:32;;;;;;;2.13;1.93;;;27.00;93.90;;;;;;5003866;28;20407;-70
2023/08/30 11:29:03;;;;;;;3.33;3.03;;;27.90;91.90;;;;;;5003968;28;20832;-69
2023/08/30 11:31:29;;;;;;;2.30;2.10;;;28.00;91.40;;;;;;5004309;28;20254;-70
2023/08/30 11:33:56;;;;;;;2.00;1.80;;;28.10;91.10;;;;;;5003115;28;20919;-70
2023/08/30 11:36:27;;;;;;;2.03;1.80;;;27.50;90.80;;;;;;5004359;28;20179;-70
2023/08/30 11:38:53;;;;;;;2.33;2.00;;;27.10;91.30;;;;;;5005841;28;20399;-69
2023/08/30 11:41:23;;;;;;;1.90;1.80;;;26.20;92.20;;;;;;5014186;28;20426;-68
2023/08/30 11:43:50;;;;;;;3.30;1.90;;;25.00;93.50;;;;;;5031522;28;20885;-70
2023/08/30 11:46:17;;;;;;;5.10;4.70;;;24.30;94.30;;;;;;5033162;28;20418;-69
2023/08/30 11:48:43;;;;;;;6.93;4.10;;;23.10;96.70;;;;;;5032903;28;20528;-68
2023/08/30 11:51:09;;;;;;;3.20;2.87;;;22.10;99.80;;;;;;5033004;28;20471;-69
2023/08/30 11:53:35;;;;;;;4.67;2.97;;;21.30;99.90;;;;;;5015011;28;20946;-71
2023/08/30 11:56:01;;;;;;;4.30;3.70;;;20.70;99.90;;;;;;5013600;28;20259;-70
2023/08/30 11:58:27;;;;;;;3.90;3.00;;;20.10;99.90;;;;;;5013509;28;20791;-69
2023/08/30 12:00:54;;;;;;;3.23;2.93;;;19.80;99.90;;;;;;5013463;28;20433;-70
2023/08/30 12:03:22;;;;;;;3.33;3.13;;;19.70;99.90;;;;;;5028297;28;20187;-71
2023/08/30 12:05:49;;;;;;;4.30;3.90;;;19.30;99.90;;;;;;5006262;28;20429;-71
2023/08/30 12:08:24;;;;;;;3.90;3.60;;;19.10;99.90;;;;;;5003985;28;20524;-70
2023/08/30 12:10:49;;;;;;;3.70;3.40;;;18.60;99.90;;;;;;5004476;28;20517;-71
2023/08/30 12:13:29;;;;;;;3.90;3.60;;;18.60;99.90;;;;;;5002623;28;20522;-71
2023/08/30 12:15:56;;;;;;;8.00;3.80;;;18.50;99.90;;;;;;5004572;28;20180;-69
2023/08/30 12:18:28;;;;;;;3.80;3.50;;;18.40;99.90;;;;;;5003964;28;20764;-70
2023/08/30 12:21:04;;;;;;;2.90;2.60;;;18.50;99.90;;;;;;5004573;28;20402;-71
2023/08/30 12:23:31;;;;;;;4.10;3.63;;;18.80;99.90;;;;;;5004197;28;20431;-70
2023/08/30 12:26:07;;;;;;;4.17;3.77;;;18.90;99.90;;;;;;5003991;28;20498;-71
2023/08/30 12:28:41;;;;;;;4.10;3.80;;;19.20;99.90;;;;;;5004014;28;20462;-70
2023/08/30 12:31:07;;;;;;;4.30;3.90;;;19.20;99.90;;;;;;5004112;28;20933;-71
2023/08/30 12:33:34;;;;;;;3.57;3.27;;;19.60;99.90;;;;;;5003732;28;20446;-72
2023/08/30 12:35:59;;;;;;;4.00;3.20;;;19.70;99.90;;;;;;5003441;28;20264;-69
2023/08/30 12:38:25;;;;;;;4.30;2.70;;;19.60;99.90;;;;;;5003863;28;20850;-69